createdAt,value
2019-02-15T00:00:21.319Z,7.10
2019-02-15T00:02:49.836Z,7.10
2019-02-15T00:05:18.351Z,7.10
2019-02-15T00:07:46.774Z,7.10
2019-02-15T00:10:15.228Z,7.20
2019-02-15T00:12:43.651Z,7.20
2019-02-15T00:15:12.179Z,7.30
2019-02-15T00:17:45.318Z,7.30
2019-02-15T00:20:15.412Z,7.40
2019-02-15T00:22:43.875Z,7.30
2019-02-15T00:25:12.341Z,7.30
2019-02-15T00:27:40.843Z,7.20
2019-02-15T00:30:11.484Z,7.30
2019-02-15T00:32:39.932Z,7.30
2019-02-15T00:35:08.475Z,7.30
2019-02-15T00:37:36.930Z,7.30
2019-02-15T00:40:06.105Z,7.30
2019-02-15T00:42:34.545Z,7.40
2019-02-15T00:45:03.108Z,7.40
2019-02-15T00:47:33.194Z,7.40
2019-02-15T00:50:03.272Z,7.50
2019-02-15T00:52:33.373Z,7.50
2019-02-15T00:55:03.450Z,7.40
2019-02-15T00:57:36.339Z,7.50
2019-02-15T01:00:07.552Z,7.50
2019-02-15T01:02:40.626Z,7.50
2019-02-15T01:05:22.524Z,7.50
2019-02-15T01:07:52.657Z,7.50
2019-02-15T01:10:31.719Z,7.50
2019-02-15T01:13:01.822Z,7.40
2019-02-15T01:15:30.274Z,7.40
2019-02-15T01:17:58.771Z,7.40
2019-02-15T01:20:27.203Z,7.40
2019-02-15T01:22:55.661Z,7.40
2019-02-15T01:25:25.463Z,7.40
2019-02-15T01:27:55.662Z,7.40
2019-02-15T01:30:41.667Z,7.40
2019-02-15T01:33:28.449Z,7.40
2019-02-15T01:36:01.792Z,7.40
2019-02-15T01:38:34.656Z,7.30
2019-02-15T01:41:07.205Z,7.20
2019-02-15T01:43:55.307Z,7.20
2019-02-15T01:46:25.381Z,7.10
2019-02-15T01:48:53.847Z,7.10
2019-02-15T01:51:22.382Z,7.10
2019-02-15T01:53:50.872Z,7.10
2019-02-15T01:56:19.376Z,7.10
2019-02-15T01:58:47.815Z,7.00
2019-02-15T02:01:17.894Z,7.00
2019-02-15T02:03:50.834Z,7.00
2019-02-15T02:06:19.448Z,7.00
2019-02-15T02:08:48.123Z,7.00
2019-02-15T02:11:16.715Z,7.00
2019-02-15T02:13:49.629Z,7.00
2019-02-15T02:16:15.693Z,6.90
2019-02-15T02:18:44.208Z,6.90
2019-02-15T02:21:12.679Z,6.90
2019-02-15T02:23:41.212Z,6.90
2019-02-15T02:26:09.811Z,6.90
2019-02-15T02:28:38.274Z,6.90
2019-02-15T02:31:06.793Z,6.80
2019-02-15T02:33:35.315Z,6.70
2019-02-15T02:36:03.931Z,6.60
2019-02-15T02:38:32.379Z,6.60
2019-02-15T02:41:00.880Z,6.60
2019-02-15T02:43:29.341Z,6.60
2019-02-15T02:45:57.775Z,6.60
2019-02-15T02:48:26.293Z,6.60
2019-02-15T02:50:54.826Z,6.50
2019-02-15T02:53:23.274Z,6.50
2019-02-15T02:55:51.747Z,6.40
2019-02-15T02:58:20.267Z,6.50
2019-02-15T03:00:48.760Z,6.40
2019-02-15T03:03:17.210Z,6.40
2019-02-15T03:05:45.719Z,6.40
2019-02-15T03:08:14.192Z,6.40
2019-02-15T03:10:42.621Z,6.40
2019-02-15T03:13:11.154Z,6.30
2019-02-15T03:15:39.609Z,6.40
2019-02-15T03:18:08.085Z,6.40
2019-02-15T03:20:36.588Z,6.40
2019-02-15T03:23:05.020Z,6.40
2019-02-15T03:25:33.468Z,6.50
2019-02-15T03:28:01.905Z,6.50
2019-02-15T03:30:30.373Z,6.50
2019-02-15T03:32:58.890Z,6.50
2019-02-15T03:35:27.404Z,6.50
2019-02-15T03:37:57.478Z,6.50
2019-02-15T03:40:27.573Z,6.50
2019-02-15T03:42:56.084Z,6.60
2019-02-15T03:45:24.679Z,6.60
2019-02-15T03:47:53.124Z,6.60
2019-02-15T03:50:21.656Z,6.60
2019-02-15T03:52:50.080Z,6.60
2019-02-15T03:55:18.537Z,6.70
2019-02-15T03:57:46.971Z,6.70
2019-02-15T04:00:15.429Z,6.80
2019-02-15T04:02:43.858Z,6.80
2019-02-15T04:05:12.339Z,6.80
2019-02-15T04:07:40.909Z,6.90
2019-02-15T04:10:09.799Z,7.00
2019-02-15T04:12:38.225Z,7.00
2019-02-15T04:15:07.847Z,7.00
2019-02-15T04:17:36.319Z,7.00
2019-02-15T04:20:07.641Z,7.00
2019-02-15T04:22:36.159Z,7.00
2019-02-15T04:25:05.500Z,7.00
2019-02-15T04:27:33.936Z,7.10
2019-02-15T04:30:02.383Z,7.10
2019-02-15T04:32:30.929Z,7.10
2019-02-15T04:34:59.518Z,7.10
2019-02-15T04:37:27.990Z,7.10
2019-02-15T04:39:56.438Z,7.10
2019-02-15T04:42:24.952Z,7.10
2019-02-15T04:44:53.418Z,7.10
2019-02-15T04:47:21.945Z,7.10
2019-02-15T04:49:50.403Z,7.10
2019-02-15T04:52:18.981Z,7.20
2019-02-15T04:54:47.404Z,7.20
2019-02-15T04:57:15.966Z,7.20
2019-02-15T04:59:44.415Z,7.00
2019-02-15T05:02:14.071Z,7.00
2019-02-15T05:04:42.563Z,7.00
2019-02-15T05:07:11.054Z,7.00
2019-02-15T05:09:39.527Z,7.00
2019-02-15T05:12:07.980Z,7.00
2019-02-15T05:14:36.451Z,7.00
2019-02-15T05:17:04.882Z,7.00
2019-02-15T05:19:33.335Z,6.90
2019-02-15T05:22:01.762Z,6.90
2019-02-15T05:24:30.211Z,6.90
2019-02-15T05:26:58.670Z,6.90
2019-02-15T05:29:27.271Z,6.90
2019-02-15T05:31:55.789Z,7.00
2019-02-15T05:34:24.367Z,7.00
2019-02-15T05:36:52.819Z,6.90
2019-02-15T05:39:21.291Z,7.00
2019-02-15T05:41:49.815Z,7.00
2019-02-15T05:44:18.263Z,7.00
2019-02-15T05:46:46.706Z,6.90
2019-02-15T05:49:15.182Z,6.90
2019-02-15T05:51:43.691Z,7.00
2019-02-15T05:54:12.182Z,6.90
2019-02-15T05:56:40.675Z,6.90
2019-02-15T05:59:09.194Z,7.00
2019-02-15T06:01:38.560Z,7.00
2019-02-15T06:04:07.035Z,7.00
2019-02-15T06:06:35.508Z,6.90
2019-02-15T06:09:10.344Z,6.80
2019-02-15T06:11:38.963Z,6.70
2019-02-15T06:14:07.779Z,6.60
2019-02-15T06:16:36.207Z,6.50
2019-02-15T06:19:04.676Z,6.50
2019-02-15T06:21:34.664Z,6.50
2019-02-15T06:24:03.091Z,6.40
2019-02-15T06:26:31.550Z,6.40
2019-02-15T06:29:00.955Z,6.30
2019-02-15T06:31:29.444Z,6.30
2019-02-15T06:33:57.973Z,6.40
2019-02-15T06:36:45.820Z,6.40
2019-02-15T06:39:33.722Z,6.40
2019-02-15T06:42:21.559Z,6.50
2019-02-15T06:45:09.372Z,6.70
2019-02-15T06:47:57.148Z,6.80
2019-02-15T06:50:44.952Z,6.50
2019-02-15T06:53:32.912Z,6.50
2019-02-15T06:56:20.839Z,6.60
2019-02-15T06:59:27.807Z,6.60
2019-02-15T07:08:05.573Z,6.60
2019-02-15T07:10:53.508Z,6.80
2019-02-15T07:13:41.461Z,6.80
2019-02-15T07:16:29.261Z,6.90
2019-02-15T07:19:17.023Z,7.10
2019-02-15T07:22:05.076Z,7.60
2019-02-15T07:24:52.854Z,8.20
2019-02-15T07:27:40.651Z,8.80
2019-02-15T07:30:28.432Z,9.20
2019-02-15T07:33:16.231Z,9.60
2019-02-15T07:36:04.011Z,9.90
2019-02-15T07:38:51.798Z,10.00
2019-02-15T07:41:39.665Z,10.10
2019-02-15T07:44:27.649Z,10.40
2019-02-15T07:47:15.500Z,10.70
2019-02-15T07:50:04.062Z,11.30
2019-02-15T07:52:51.868Z,11.90
2019-02-15T07:55:39.643Z,12.60
2019-02-15T07:58:27.439Z,13.30
2019-02-15T08:01:15.925Z,13.80
2019-02-15T08:04:03.930Z,14.20
2019-02-15T08:06:51.788Z,14.70
2019-02-15T08:09:39.553Z,15.30
2019-02-15T08:12:27.654Z,15.60
2019-02-15T08:15:15.503Z,16.20
2019-02-15T08:18:03.395Z,16.60
2019-02-15T08:20:44.139Z,17.00
2019-02-15T08:23:25.147Z,17.40
2019-02-15T08:26:06.100Z,17.70
2019-02-15T08:28:46.960Z,18.10
2019-02-15T08:31:28.120Z,18.40
2019-02-15T08:34:08.978Z,18.70
2019-02-15T08:39:32.740Z,19.30
2019-02-15T08:42:13.448Z,19.60
2019-02-15T08:44:53.998Z,19.80
2019-02-15T08:47:34.812Z,20.10
2019-02-15T08:50:15.496Z,20.40
2019-02-15T08:52:56.229Z,20.80
2019-02-15T08:55:24.681Z,21.10
2019-02-15T08:58:12.574Z,21.30
2019-02-15T09:01:00.431Z,21.60
2019-02-15T09:03:28.951Z,21.90
2019-02-15T09:06:16.722Z,22.20
2019-02-15T09:09:05.280Z,22.40
2019-02-15T09:11:53.060Z,22.70
2019-02-15T09:14:40.844Z,23.00
2019-02-15T09:17:28.629Z,23.30
2019-02-15T09:20:09.317Z,23.60
2019-02-15T09:22:49.924Z,23.70
2019-02-15T09:25:30.836Z,23.90
2019-02-15T09:28:30.696Z,24.10
2019-02-15T09:31:10.953Z,24.30
2019-02-15T09:33:51.492Z,24.50
2019-02-15T09:39:15.313Z,24.70
2019-02-15T09:44:39.177Z,24.60
2019-02-15T09:47:19.719Z,25.20
2019-02-15T09:50:00.332Z,25.50
2019-02-15T09:52:40.873Z,25.70
2019-02-15T09:55:21.271Z,25.60
2019-02-15T09:58:02.189Z,25.60
2019-02-15T10:00:42.699Z,25.40
2019-02-15T10:03:23.575Z,25.30
2019-02-15T10:06:04.223Z,25.10
2019-02-15T10:08:44.960Z,24.90
2019-02-15T10:11:25.425Z,24.70
2019-02-15T10:14:06.251Z,24.60
2019-02-15T10:16:34.704Z,24.50
2019-02-15T10:19:03.139Z,24.40
2019-02-15T10:21:50.972Z,24.30
2019-02-15T10:24:19.440Z,24.20
2019-02-15T10:27:07.238Z,24.10
2019-02-15T10:29:35.771Z,24.10
2019-02-15T10:32:23.678Z,24.10
2019-02-15T10:35:11.674Z,24.00
2019-02-15T10:37:59.544Z,23.90
2019-02-15T10:40:28.219Z,23.90
2019-02-15T10:43:16.064Z,24.00
2019-02-15T10:46:03.871Z,24.10
2019-02-15T10:48:51.667Z,24.40
2019-02-15T10:51:39.479Z,24.50
2019-02-15T10:54:27.251Z,24.50
2019-02-15T10:57:15.112Z,24.40
2019-02-15T11:00:03.415Z,24.40
2019-02-15T11:02:51.224Z,24.30
2019-02-15T11:05:39.024Z,24.40
2019-02-15T11:08:26.915Z,24.60
2019-02-15T11:11:14.787Z,24.90
2019-02-15T11:14:02.567Z,25.20
2019-02-15T11:16:50.480Z,25.60
2019-02-15T11:19:31.344Z,25.80
2019-02-15T11:22:11.705Z,25.80
2019-02-15T11:24:52.177Z,25.90
2019-02-15T11:27:32.863Z,26.20
2019-02-15T11:30:13.456Z,26.50
2019-02-15T11:32:54.055Z,27.00
2019-02-15T11:35:34.603Z,27.40
2019-02-15T11:38:15.067Z,27.70
2019-02-15T11:40:55.880Z,28.00
2019-02-15T11:43:36.494Z,28.40
2019-02-15T11:46:16.938Z,28.80
2019-02-15T11:48:58.413Z,29.20
2019-02-15T11:51:39.095Z,29.40
2019-02-15T11:54:23.549Z,29.00
2019-02-15T11:57:02.354Z,28.70
2019-02-15T11:59:42.889Z,28.40
2019-02-15T12:02:23.756Z,28.10
2019-02-15T12:05:04.385Z,27.90
2019-02-15T12:07:45.147Z,27.70
2019-02-15T12:10:26.069Z,27.30
2019-02-15T12:13:06.480Z,27.30
2019-02-15T12:18:29.083Z,27.00
2019-02-15T12:21:09.412Z,26.80
2019-02-15T12:23:50.109Z,26.80
2019-02-15T12:26:30.668Z,26.70
2019-02-15T12:29:11.164Z,26.90
2019-02-15T12:31:52.064Z,26.90
2019-02-15T12:34:32.531Z,27.10
2019-02-15T12:37:13.064Z,27.10
2019-02-15T12:39:53.890Z,27.30
2019-02-15T12:42:34.599Z,27.40
2019-02-15T12:45:15.514Z,27.50
2019-02-15T12:47:56.408Z,27.70
2019-02-15T12:50:37.231Z,27.80
2019-02-15T12:53:18.131Z,27.80
2019-02-15T12:55:58.731Z,27.70
2019-02-15T12:58:39.587Z,27.70
2019-02-15T13:01:20.392Z,28.00
2019-02-15T13:04:01.140Z,28.20
2019-02-15T13:06:43.114Z,28.40
2019-02-15T13:09:23.573Z,28.70
2019-02-15T13:12:04.293Z,28.90
2019-02-15T13:14:45.020Z,29.30
2019-02-15T13:17:25.685Z,29.60
2019-02-15T13:20:06.318Z,29.90
2019-02-15T13:22:47.049Z,30.00
2019-02-15T13:25:34.938Z,30.10
2019-02-15T13:28:10.083Z,30.10
2019-02-15T13:30:51.229Z,30.10
2019-02-15T13:33:31.428Z,30.10
2019-02-15T13:36:11.774Z,30.10
2019-02-15T13:38:52.698Z,30.20
2019-02-15T13:41:32.987Z,30.30
2019-02-15T13:44:13.743Z,30.40
2019-02-15T13:46:54.572Z,30.30
2019-02-15T13:49:35.125Z,30.20
2019-02-15T13:52:16.035Z,30.20
2019-02-15T13:54:57.039Z,30.10
2019-02-15T13:57:37.896Z,30.20
2019-02-15T14:00:18.552Z,30.10
2019-02-15T14:02:59.423Z,30.00
2019-02-15T14:05:40.038Z,29.80
2019-02-15T14:11:03.512Z,29.90
2019-02-15T14:13:44.340Z,30.20
2019-02-15T14:16:24.978Z,30.40
2019-02-15T14:19:05.283Z,30.50
2019-02-15T14:21:46.188Z,30.70
2019-02-15T14:24:26.728Z,30.80
2019-02-15T14:27:07.643Z,30.90
2019-02-15T14:29:48.375Z,30.90
2019-02-15T14:32:29.032Z,30.90
2019-02-15T14:35:09.442Z,30.90
2019-02-15T14:37:50.548Z,31.10
2019-02-15T14:40:31.500Z,31.30
2019-02-15T14:43:12.051Z,31.40
2019-02-15T14:45:52.745Z,31.40
2019-02-15T14:51:16.127Z,31.30
2019-02-15T14:53:56.441Z,31.20
2019-02-15T14:56:37.266Z,31.00
2019-02-15T14:59:18.336Z,30.70
2019-02-15T15:01:59.123Z,30.30
2019-02-15T15:04:41.386Z,29.60
2019-02-15T15:07:22.568Z,28.70
2019-02-15T15:10:03.389Z,27.60
2019-02-15T15:12:44.233Z,26.50
2019-02-15T15:15:25.493Z,25.70
2019-02-15T15:18:12.780Z,24.90
2019-02-15T15:20:48.691Z,24.10
2019-02-15T15:23:29.780Z,23.30
2019-02-15T15:26:12.085Z,22.60
2019-02-15T15:28:52.815Z,22.10
2019-02-15T15:31:33.117Z,21.60
2019-02-15T15:34:13.959Z,21.20
2019-02-15T15:36:54.771Z,20.90
2019-02-15T15:39:35.776Z,20.60
2019-02-15T15:42:16.321Z,20.40
2019-02-15T15:44:56.988Z,20.20
2019-02-15T15:47:37.239Z,20.00
2019-02-15T15:50:17.807Z,19.80
2019-02-15T15:52:58.542Z,19.60
2019-02-15T15:55:39.098Z,19.40
2019-02-15T15:58:19.570Z,19.20
2019-02-15T16:00:59.984Z,19.10
2019-02-15T16:03:40.795Z,18.90
2019-02-15T16:06:24.542Z,18.70
2019-02-15T16:09:04.696Z,18.70
2019-02-15T16:11:45.398Z,18.60
2019-02-15T16:14:25.793Z,18.50
2019-02-15T16:17:06.666Z,18.40
2019-02-15T16:19:49.206Z,18.30
2019-02-15T16:22:30.297Z,18.20
2019-02-15T16:25:11.099Z,18.20
2019-02-15T16:27:51.788Z,18.20
2019-02-15T16:30:32.532Z,18.10
2019-02-15T16:33:13.505Z,18.00
2019-02-15T16:35:53.830Z,17.90
2019-02-15T16:38:34.533Z,17.90
2019-02-15T16:43:57.014Z,17.70
2019-02-15T16:46:37.384Z,17.70
2019-02-15T16:49:18.090Z,17.60
2019-02-15T16:51:58.817Z,17.50
2019-02-15T16:54:39.525Z,17.30
2019-02-15T16:57:20.308Z,17.30
2019-02-15T17:00:01.255Z,17.30
2019-02-15T17:02:41.618Z,17.20
2019-02-15T17:05:22.376Z,17.20
2019-02-15T17:08:02.986Z,17.10
2019-02-15T17:10:43.705Z,16.90
2019-02-15T17:13:24.571Z,16.80
2019-02-15T17:16:05.456Z,16.70
2019-02-15T17:18:51.736Z,16.60
2019-02-15T17:21:29.160Z,16.40
2019-02-15T17:24:10.379Z,16.30
2019-02-15T17:26:51.254Z,16.20
2019-02-15T17:29:32.226Z,16.20
2019-02-15T17:32:12.788Z,16.10
2019-02-15T17:34:53.613Z,16.10
2019-02-15T17:37:34.311Z,16.00
2019-02-15T17:40:14.932Z,15.90
2019-02-15T17:42:55.328Z,15.90
2019-02-15T17:45:35.797Z,15.80
2019-02-15T17:48:04.294Z,15.70
2019-02-15T17:50:33.095Z,15.50
2019-02-15T17:53:01.562Z,15.50
2019-02-15T17:55:49.418Z,15.40
2019-02-15T17:58:37.184Z,15.30
2019-02-15T18:01:24.978Z,15.20
2019-02-15T18:04:12.855Z,15.20
2019-02-15T18:07:00.738Z,15.10
2019-02-15T18:09:48.639Z,15.00
2019-02-15T18:12:36.430Z,14.90
2019-02-15T18:15:24.236Z,14.80
2019-02-15T18:18:12.040Z,14.70
2019-02-15T18:20:52.643Z,14.60
2019-02-15T18:23:33.545Z,14.60
2019-02-15T18:26:14.146Z,14.50
2019-02-15T18:28:54.880Z,14.40
2019-02-15T18:31:35.790Z,14.30
2019-02-15T18:36:53.479Z,14.20
2019-02-15T18:39:41.262Z,14.00
2019-02-15T18:42:29.051Z,13.90
2019-02-15T18:45:16.948Z,13.80
2019-02-15T18:48:04.763Z,13.80
2019-02-15T18:50:52.551Z,13.70
2019-02-15T18:56:35.475Z,13.60
2019-02-15T18:59:23.323Z,13.60
2019-02-15T19:02:11.119Z,13.60
2019-02-15T19:04:58.895Z,13.60
2019-02-15T19:07:47.040Z,13.60
2019-02-15T19:10:34.899Z,13.60
2019-02-15T19:13:22.688Z,13.60
2019-02-15T19:16:10.477Z,13.70
2019-02-15T19:18:58.320Z,13.80
2019-02-15T19:21:38.847Z,13.70
2019-02-15T19:24:19.827Z,13.70
2019-02-15T19:27:00.325Z,13.60
2019-02-15T19:29:40.784Z,13.70
2019-02-15T19:32:21.639Z,13.70
2019-02-15T19:35:02.431Z,13.70
2019-02-15T19:37:43.405Z,13.70
2019-02-15T19:40:24.203Z,13.70
2019-02-15T19:43:05.377Z,13.60
2019-02-15T19:45:45.635Z,13.60
2019-02-15T19:48:26.112Z,13.50
2019-02-15T19:51:06.591Z,13.50
2019-02-15T19:53:47.109Z,13.50
2019-02-15T19:56:28.029Z,13.50
2019-02-15T19:59:09.548Z,13.50
2019-02-15T20:01:49.929Z,13.40
2019-02-15T20:04:34.152Z,13.40
2019-02-15T20:07:14.496Z,13.30
2019-02-15T20:09:55.192Z,13.20
2019-02-15T20:12:35.511Z,13.20
2019-02-15T20:15:16.219Z,13.20
2019-02-15T20:17:56.956Z,13.20
2019-02-15T20:20:37.543Z,13.20
2019-02-15T20:23:18.913Z,13.20
2019-02-15T20:25:59.262Z,13.20
2019-02-15T20:28:40.055Z,13.20
2019-02-15T20:31:20.526Z,13.30
2019-02-15T20:34:00.943Z,13.20
2019-02-15T20:36:41.252Z,13.00
2019-02-15T20:39:22.116Z,12.80
2019-02-15T20:42:02.427Z,12.70
2019-02-15T20:44:43.083Z,12.40
2019-02-15T20:47:24.064Z,12.30
2019-02-15T20:50:04.384Z,12.30
2019-02-15T20:52:45.413Z,12.20
2019-02-15T20:55:26.651Z,12.20
2019-02-15T20:58:07.385Z,12.20
2019-02-15T21:00:48.040Z,12.20
2019-02-15T21:03:28.539Z,12.10
2019-02-15T21:06:09.037Z,12.10
2019-02-15T21:08:49.749Z,12.30
2019-02-15T21:11:30.138Z,12.20
2019-02-15T21:14:10.749Z,12.20
2019-02-15T21:16:51.363Z,12.20
2019-02-15T21:19:32.274Z,12.30
2019-02-15T21:22:12.901Z,12.30
2019-02-15T21:24:53.576Z,12.30
2019-02-15T21:27:22.013Z,12.30
2019-02-15T21:30:29.144Z,12.30
2019-02-15T21:33:16.919Z,12.40
2019-02-15T21:36:04.728Z,12.40
2019-02-15T21:38:52.500Z,12.30
2019-02-15T21:41:40.295Z,12.20
2019-02-15T21:44:28.062Z,12.20
2019-02-15T21:47:15.873Z,12.10
2019-02-15T21:50:03.951Z,12.20
2019-02-15T21:52:51.747Z,12.10
2019-02-15T21:55:39.762Z,12.10
2019-02-15T21:58:27.622Z,12.00
2019-02-15T22:01:15.567Z,12.00
2019-02-15T22:04:03.377Z,12.00
2019-02-15T22:06:51.180Z,11.90
2019-02-15T22:09:38.979Z,11.90
2019-02-15T22:12:26.827Z,11.90
2019-02-15T22:14:55.659Z,11.80
2019-02-15T22:17:58.507Z,11.70
2019-02-15T22:20:27.219Z,11.60
2019-02-15T22:23:08.184Z,11.60
2019-02-15T22:25:48.760Z,11.50
2019-02-15T22:28:29.550Z,11.50
2019-02-15T22:31:11.911Z,11.40
2019-02-15T22:33:52.723Z,11.40
2019-02-15T22:36:33.437Z,11.30
2019-02-15T22:39:14.481Z,11.20
2019-02-15T22:41:55.015Z,11.10
2019-02-15T22:44:35.905Z,11.00
2019-02-15T22:47:16.876Z,10.90
2019-02-15T22:49:57.624Z,10.90
2019-02-15T22:52:38.518Z,10.80
2019-02-15T22:55:18.908Z,10.90
2019-02-15T22:57:59.758Z,10.80
2019-02-15T23:03:34.829Z,10.80
2019-02-15T23:06:15.377Z,10.80
2019-02-15T23:08:56.475Z,10.80
2019-02-15T23:11:36.915Z,10.80
2019-02-15T23:14:17.538Z,10.80
2019-02-15T23:16:58.439Z,10.80
2019-02-15T23:19:39.395Z,10.90
2019-02-15T23:22:20.346Z,10.80
2019-02-15T23:25:01.375Z,10.90
2019-02-15T23:27:42.349Z,10.90
2019-02-15T23:30:22.992Z,10.90
2019-02-15T23:33:04.044Z,10.20
2019-02-15T23:35:44.355Z,10.80
2019-02-15T23:38:24.799Z,10.80
2019-02-15T23:41:05.708Z,10.80
2019-02-15T23:43:46.212Z,10.70
2019-02-15T23:46:27.287Z,10.60
2019-02-15T23:49:07.582Z,10.60
2019-02-15T23:51:48.501Z,10.60
2019-02-15T23:54:28.862Z,10.60
2019-02-15T23:57:09.487Z,10.70
2019-02-15T23:59:50.434Z,10.70
